sensor_id;sensor_type;location;lat;lon;timestamp;temperature;humidity
21734;DHT22;11029;47.820;10.534;2022-12-18T00:01:25;-5.10;81.80
21734;DHT22;11029;47.820;10.534;2022-12-18T00:03:54;-5.10;81.30
21734;DHT22;11029;47.820;10.534;2022-12-18T00:06:24;-5.10;81.60
21734;DHT22;11029;47.820;10.534;2022-12-18T00:08:51;-5.10;81.60
21734;DHT22;11029;47.820;10.534;2022-12-18T00:11:20;-5.10;82.10
21734;DHT22;11029;47.820;10.534;2022-12-18T00:13:48;-5.10;81.90
21734;DHT22;11029;47.820;10.534;2022-12-18T00:16:17;-5.20;82.00
21734;DHT22;11029;47.820;10.534;2022-12-18T00:18:48;-5.20;82.10
21734;DHT22;11029;47.820;10.534;2022-12-18T00:21:17;-5.20;81.90
21734;DHT22;11029;47.820;10.534;2022-12-18T00:23:45;-5.20;81.80
21734;DHT22;11029;47.820;10.534;2022-12-18T00:26:32;-5.20;81.80
21734;DHT22;11029;47.820;10.534;2022-12-18T00:29:10;-5.20;81.50
21734;DHT22;11029;47.820;10.534;2022-12-18T00:31:38;-5.20;81.60
21734;DHT22;11029;47.820;10.534;2022-12-18T00:34:05;-5.20;81.70
21734;DHT22;11029;47.820;10.534;2022-12-18T00:36:34;-5.20;81.50
21734;DHT22;11029;47.820;10.534;2022-12-18T00:39:03;-5.20;81.40
21734;DHT22;11029;47.820;10.534;2022-12-18T00:41:30;-5.10;81.20
21734;DHT22;11029;47.820;10.534;2022-12-18T00:44:17;-5.20;81.40
21734;DHT22;11029;47.820;10.534;2022-12-18T00:46:44;-5.20;80.90
21734;DHT22;11029;47.820;10.534;2022-12-18T00:49:12;-5.20;81.10
21734;DHT22;11029;47.820;10.534;2022-12-18T00:51:39;-5.20;81.00
21734;DHT22;11029;47.820;10.534;2022-12-18T00:54:05;-5.20;80.90
21734;DHT22;11029;47.820;10.534;2022-12-18T00:56:32;-5.20;80.60
21734;DHT22;11029;47.820;10.534;2022-12-18T00:59:04;-5.20;80.80
21734;DHT22;11029;47.820;10.534;2022-12-18T01:01:32;-5.20;80.50
21734;DHT22;11029;47.820;10.534;2022-12-18T01:04:01;-5.20;80.70
21734;DHT22;11029;47.820;10.534;2022-12-18T01:06:28;-5.30;80.90
21734;DHT22;11029;47.820;10.534;2022-12-18T01:08:55;-5.30;81.00
21734;DHT22;11029;47.820;10.534;2022-12-18T01:11:22;-5.40;80.50
21734;DHT22;11029;47.820;10.534;2022-12-18T01:13:49;-5.40;81.00
21734;DHT22;11029;47.820;10.534;2022-12-18T01:16:17;-5.40;80.80
21734;DHT22;11029;47.820;10.534;2022-12-18T01:18:45;-5.40;81.40
21734;DHT22;11029;47.820;10.534;2022-12-18T01:21:15;-5.40;81.50
21734;DHT22;11029;47.820;10.534;2022-12-18T01:23:42;-5.40;81.50
21734;DHT22;11029;47.820;10.534;2022-12-18T01:26:13;-5.40;81.50
21734;DHT22;11029;47.820;10.534;2022-12-18T01:28:40;-5.50;81.30
21734;DHT22;11029;47.820;10.534;2022-12-18T01:31:19;-5.40;81.70
21734;DHT22;11029;47.820;10.534;2022-12-18T01:33:46;-5.50;81.70
21734;DHT22;11029;47.820;10.534;2022-12-18T01:36:30;-5.50;81.80
21734;DHT22;11029;47.820;10.534;2022-12-18T01:39:10;-5.50;81.70
21734;DHT22;11029;47.820;10.534;2022-12-18T01:41:41;-5.50;81.60
21734;DHT22;11029;47.820;10.534;2022-12-18T01:52:36;-5.30;79.10
21734;DHT22;11029;47.820;10.534;2022-12-18T01:55:07;-5.50;79.60
21734;DHT22;11029;47.820;10.534;2022-12-18T01:57:34;-5.50;80.50
21734;DHT22;11029;47.820;10.534;2022-12-18T02:00:08;-5.50;81.00
21734;DHT22;11029;47.820;10.534;2022-12-18T02:02:41;-5.50;81.10
21734;DHT22;11029;47.820;10.534;2022-12-18T02:05:11;-5.50;81.20
21734;DHT22;11029;47.820;10.534;2022-12-18T02:10:41;-5.50;80.50
21734;DHT22;11029;47.820;10.534;2022-12-18T02:13:32;-5.70;80.50
21734;DHT22;11029;47.820;10.534;2022-12-18T02:16:26;-5.60;80.90
21734;DHT22;11029;47.820;10.534;2022-12-18T02:19:00;-5.70;81.00
21734;DHT22;11029;47.820;10.534;2022-12-18T02:26:47;-5.60;81.70
21734;DHT22;11029;47.820;10.534;2022-12-18T02:29:22;-5.60;81.00
21734;DHT22;11029;47.820;10.534;2022-12-18T02:31:54;-5.60;81.30
21734;DHT22;11029;47.820;10.534;2022-12-18T02:34:25;-5.70;80.60
21734;DHT22;11029;47.820;10.534;2022-12-18T02:36:54;-5.80;80.30
21734;DHT22;11029;47.820;10.534;2022-12-18T02:39:25;-5.90;81.70
21734;DHT22;11029;47.820;10.534;2022-12-18T02:42:00;-6.00;82.30
21734;DHT22;11029;47.820;10.534;2022-12-18T02:44:45;-5.90;82.20
21734;DHT22;11029;47.820;10.534;2022-12-18T02:47:18;-5.80;81.30
21734;DHT22;11029;47.820;10.534;2022-12-18T03:01:02;-6.00;81.70
21734;DHT22;11029;47.820;10.534;2022-12-18T03:03:38;-5.90;81.50
21734;DHT22;11029;47.820;10.534;2022-12-18T03:08:57;-5.90;81.30
21734;DHT22;11029;47.820;10.534;2022-12-18T03:11:28;-5.90;80.90
21734;DHT22;11029;47.820;10.534;2022-12-18T03:14:17;-6.00;81.30
21734;DHT22;11029;47.820;10.534;2022-12-18T03:16:49;-6.00;80.80
21734;DHT22;11029;47.820;10.534;2022-12-18T03:19:21;-6.00;80.70
21734;DHT22;11029;47.820;10.534;2022-12-18T03:21:56;-6.10;81.10
21734;DHT22;11029;47.820;10.534;2022-12-18T03:24:26;-6.20;80.90
21734;DHT22;11029;47.820;10.534;2022-12-18T03:26:58;-6.20;81.00
21734;DHT22;11029;47.820;10.534;2022-12-18T03:29:37;-6.30;81.00
21734;DHT22;11029;47.820;10.534;2022-12-18T03:32:09;-6.40;81.30
21734;DHT22;11029;47.820;10.534;2022-12-18T03:34:40;-6.50;82.20
21734;DHT22;11029;47.820;10.534;2022-12-18T03:37:09;-6.30;82.40
21734;DHT22;11029;47.820;10.534;2022-12-18T03:39:36;-6.20;82.10
21734;DHT22;11029;47.820;10.534;2022-12-18T03:42:32;-6.20;81.10
21734;DHT22;11029;47.820;10.534;2022-12-18T03:45:13;-6.20;81.40
21734;DHT22;11029;47.820;10.534;2022-12-18T03:47:53;-6.20;81.30
21734;DHT22;11029;47.820;10.534;2022-12-18T03:56:07;-6.30;81.10
21734;DHT22;11029;47.820;10.534;2022-12-18T03:58:38;-6.30;81.20
21734;DHT22;11029;47.820;10.534;2022-12-18T04:01:25;-6.20;81.70
21734;DHT22;11029;47.820;10.534;2022-12-18T04:03:53;-6.10;81.20
21734;DHT22;11029;47.820;10.534;2022-12-18T04:06:20;-6.10;81.30
21734;DHT22;11029;47.820;10.534;2022-12-18T04:08:48;-6.00;81.10
21734;DHT22;11029;47.820;10.534;2022-12-18T04:11:19;-6.00;80.80
21734;DHT22;11029;47.820;10.534;2022-12-18T04:13:46;-6.00;81.00
21734;DHT22;11029;47.820;10.534;2022-12-18T04:16:19;-6.00;80.60
21734;DHT22;11029;47.820;10.534;2022-12-18T04:18:49;-6.10;80.80
21734;DHT22;11029;47.820;10.534;2022-12-18T04:21:18;-6.00;81.00
21734;DHT22;11029;47.820;10.534;2022-12-18T04:23:47;-6.10;80.10
21734;DHT22;11029;47.820;10.534;2022-12-18T04:26:14;-6.10;80.30
21734;DHT22;11029;47.820;10.534;2022-12-18T04:28:57;-6.20;80.80
21734;DHT22;11029;47.820;10.534;2022-12-18T04:31:23;-6.10;80.70
21734;DHT22;11029;47.820;10.534;2022-12-18T04:33:51;-6.20;80.00
21734;DHT22;11029;47.820;10.534;2022-12-18T04:36:18;-6.20;80.80
21734;DHT22;11029;47.820;10.534;2022-12-18T04:38:46;-6.40;80.60
21734;DHT22;11029;47.820;10.534;2022-12-18T04:41:15;-6.50;81.10
21734;DHT22;11029;47.820;10.534;2022-12-18T04:43:45;-6.30;81.80
21734;DHT22;11029;47.820;10.534;2022-12-18T04:46:11;-6.30;80.40
21734;DHT22;11029;47.820;10.534;2022-12-18T04:48:38;-6.40;81.20
21734;DHT22;11029;47.820;10.534;2022-12-18T04:51:05;-6.40;81.90
21734;DHT22;11029;47.820;10.534;2022-12-18T04:53:33;-6.40;81.80
21734;DHT22;11029;47.820;10.534;2022-12-18T04:56:09;-6.30;81.20
21734;DHT22;11029;47.820;10.534;2022-12-18T04:58:37;-6.40;80.80
21734;DHT22;11029;47.820;10.534;2022-12-18T05:01:04;-6.40;80.20
21734;DHT22;11029;47.820;10.534;2022-12-18T05:03:31;-6.60;80.10
21734;DHT22;11029;47.820;10.534;2022-12-18T05:05:58;-6.80;81.20
21734;DHT22;11029;47.820;10.534;2022-12-18T05:08:25;-6.80;81.60
21734;DHT22;11029;47.820;10.534;2022-12-18T05:11:03;-6.80;82.30
21734;DHT22;11029;47.820;10.534;2022-12-18T05:13:31;-6.90;81.80
21734;DHT22;11029;47.820;10.534;2022-12-18T05:15:58;-7.00;82.20
21734;DHT22;11029;47.820;10.534;2022-12-18T05:18:25;-7.20;81.70
21734;DHT22;11029;47.820;10.534;2022-12-18T05:20:53;-7.20;82.70
21734;DHT22;11029;47.820;10.534;2022-12-18T05:23:21;-7.20;83.00
21734;DHT22;11029;47.820;10.534;2022-12-18T05:25:56;-7.20;82.50
21734;DHT22;11029;47.820;10.534;2022-12-18T05:28:25;-7.30;82.30
21734;DHT22;11029;47.820;10.534;2022-12-18T05:30:53;-7.20;83.50
21734;DHT22;11029;47.820;10.534;2022-12-18T05:33:22;-7.00;82.30
21734;DHT22;11029;47.820;10.534;2022-12-18T05:35:57;-7.10;80.90
21734;DHT22;11029;47.820;10.534;2022-12-18T05:38:28;-7.30;80.80
21734;DHT22;11029;47.820;10.534;2022-12-18T05:40:56;-7.50;81.70
21734;DHT22;11029;47.820;10.534;2022-12-18T05:43:24;-7.50;82.20
21734;DHT22;11029;47.820;10.534;2022-12-18T05:45:52;-7.40;82.60
21734;DHT22;11029;47.820;10.534;2022-12-18T05:48:20;-7.50;82.30
21734;DHT22;11029;47.820;10.534;2022-12-18T05:50:48;-7.60;82.00
21734;DHT22;11029;47.820;10.534;2022-12-18T05:53:17;-7.80;82.40
21734;DHT22;11029;47.820;10.534;2022-12-18T05:55:44;-7.80;83.10
21734;DHT22;11029;47.820;10.534;2022-12-18T05:58:12;-7.90;83.70
21734;DHT22;11029;47.820;10.534;2022-12-18T06:00:41;-7.70;83.60
21734;DHT22;11029;47.820;10.534;2022-12-18T06:03:09;-7.90;83.10
21734;DHT22;11029;47.820;10.534;2022-12-18T06:05:38;-7.80;83.20
21734;DHT22;11029;47.820;10.534;2022-12-18T06:08:05;-7.90;83.10
21734;DHT22;11029;47.820;10.534;2022-12-18T06:10:32;-7.90;83.20
21734;DHT22;11029;47.820;10.534;2022-12-18T06:13:00;-7.90;83.20
21734;DHT22;11029;47.820;10.534;2022-12-18T06:15:27;-7.80;84.40
21734;DHT22;11029;47.820;10.534;2022-12-18T06:17:53;-7.70;83.50
21734;DHT22;11029;47.820;10.534;2022-12-18T06:20:20;-7.70;82.80
21734;DHT22;11029;47.820;10.534;2022-12-18T06:22:47;-7.80;82.40
21734;DHT22;11029;47.820;10.534;2022-12-18T06:25:15;-7.90;83.10
21734;DHT22;11029;47.820;10.534;2022-12-18T06:27:42;-7.80;83.00
21734;DHT22;11029;47.820;10.534;2022-12-18T06:30:10;-7.90;83.30
21734;DHT22;11029;47.820;10.534;2022-12-18T06:32:37;-8.10;83.10
21734;DHT22;11029;47.820;10.534;2022-12-18T06:35:04;-8.20;83.90
21734;DHT22;11029;47.820;10.534;2022-12-18T06:37:31;-8.20;84.30
21734;DHT22;11029;47.820;10.534;2022-12-18T06:39:58;-8.20;84.60
21734;DHT22;11029;47.820;10.534;2022-12-18T06:42:25;-8.20;83.90
21734;DHT22;11029;47.820;10.534;2022-12-18T06:44:51;-8.30;84.50
21734;DHT22;11029;47.820;10.534;2022-12-18T06:47:18;-8.50;84.70
21734;DHT22;11029;47.820;10.534;2022-12-18T06:49:45;-8.50;85.10
21734;DHT22;11029;47.820;10.534;2022-12-18T06:52:12;-8.50;85.20
21734;DHT22;11029;47.820;10.534;2022-12-18T06:54:39;-8.70;85.30
21734;DHT22;11029;47.820;10.534;2022-12-18T06:57:05;-8.80;85.70
21734;DHT22;11029;47.820;10.534;2022-12-18T06:59:32;-8.80;85.80
21734;DHT22;11029;47.820;10.534;2022-12-18T07:01:59;-8.80;85.80
21734;DHT22;11029;47.820;10.534;2022-12-18T07:04:29;-8.70;86.40
21734;DHT22;11029;47.820;10.534;2022-12-18T07:06:56;-8.70;86.20
21734;DHT22;11029;47.820;10.534;2022-12-18T07:09:24;-8.70;85.60
21734;DHT22;11029;47.820;10.534;2022-12-18T07:11:51;-8.50;86.10
21734;DHT22;11029;47.820;10.534;2022-12-18T07:14:18;-8.50;84.80
21734;DHT22;11029;47.820;10.534;2022-12-18T07:16:45;-8.70;83.90
21734;DHT22;11029;47.820;10.534;2022-12-18T07:19:11;-8.80;83.80
21734;DHT22;11029;47.820;10.534;2022-12-18T07:21:38;-8.90;84.40
21734;DHT22;11029;47.820;10.534;2022-12-18T07:24:05;-8.90;84.90
21734;DHT22;11029;47.820;10.534;2022-12-18T07:26:32;-8.80;85.20
21734;DHT22;11029;47.820;10.534;2022-12-18T07:28:59;-8.70;84.50
21734;DHT22;11029;47.820;10.534;2022-12-18T07:31:26;-9.00;84.10
21734;DHT22;11029;47.820;10.534;2022-12-18T07:33:54;-8.80;84.50
21734;DHT22;11029;47.820;10.534;2022-12-18T07:36:24;-8.90;83.70
21734;DHT22;11029;47.820;10.534;2022-12-18T07:38:51;-9.00;84.20
21734;DHT22;11029;47.820;10.534;2022-12-18T07:41:19;-9.10;84.10
21734;DHT22;11029;47.820;10.534;2022-12-18T07:43:46;-9.10;83.10
21734;DHT22;11029;47.820;10.534;2022-12-18T07:46:14;-9.30;83.50
21734;DHT22;11029;47.820;10.534;2022-12-18T07:48:42;-9.10;84.60
21734;DHT22;11029;47.820;10.534;2022-12-18T07:51:11;-9.00;84.10
21734;DHT22;11029;47.820;10.534;2022-12-18T07:53:39;-9.00;82.90
21734;DHT22;11029;47.820;10.534;2022-12-18T07:56:09;-9.10;82.10
21734;DHT22;11029;47.820;10.534;2022-12-18T07:58:55;-9.20;83.90
21734;DHT22;11029;47.820;10.534;2022-12-18T08:01:21;-9.20;82.70
21734;DHT22;11029;47.820;10.534;2022-12-18T08:03:48;-9.50;82.60
21734;DHT22;11029;47.820;10.534;2022-12-18T08:06:18;-9.60;83.80
21734;DHT22;11029;47.820;10.534;2022-12-18T08:08:48;-9.70;84.20
21734;DHT22;11029;47.820;10.534;2022-12-18T08:11:16;-9.60;85.60
21734;DHT22;11029;47.820;10.534;2022-12-18T08:13:43;-9.70;85.80
21734;DHT22;11029;47.820;10.534;2022-12-18T08:16:10;-9.70;85.30
21734;DHT22;11029;47.820;10.534;2022-12-18T08:18:37;-9.70;85.00
21734;DHT22;11029;47.820;10.534;2022-12-18T08:21:12;-9.70;84.70
21734;DHT22;11029;47.820;10.534;2022-12-18T08:23:39;-9.50;85.50
21734;DHT22;11029;47.820;10.534;2022-12-18T08:26:13;-9.40;85.00
21734;DHT22;11029;47.820;10.534;2022-12-18T08:28:40;-9.10;84.90
21734;DHT22;11029;47.820;10.534;2022-12-18T08:31:07;-9.10;84.10
21734;DHT22;11029;47.820;10.534;2022-12-18T08:33:36;-9.10;83.50
21734;DHT22;11029;47.820;10.534;2022-12-18T08:36:05;-9.30;83.90
21734;DHT22;11029;47.820;10.534;2022-12-18T08:38:32;-9.30;84.30
21734;DHT22;11029;47.820;10.534;2022-12-18T08:41:04;-9.00;84.90
21734;DHT22;11029;47.820;10.534;2022-12-18T08:43:31;-9.10;83.30
21734;DHT22;11029;47.820;10.534;2022-12-18T08:46:18;-9.30;84.10
21734;DHT22;11029;47.820;10.534;2022-12-18T08:48:46;-9.10;84.20
21734;DHT22;11029;47.820;10.534;2022-12-18T08:51:15;-9.00;83.20
21734;DHT22;11029;47.820;10.534;2022-12-18T08:53:42;-8.90;83.70
21734;DHT22;11029;47.820;10.534;2022-12-18T08:56:10;-8.80;83.30
21734;DHT22;11029;47.820;10.534;2022-12-18T08:58:37;-8.70;82.60
21734;DHT22;11029;47.820;10.534;2022-12-18T09:01:06;-8.70;81.90
21734;DHT22;11029;47.820;10.534;2022-12-18T09:03:33;-9.00;81.50
21734;DHT22;11029;47.820;10.534;2022-12-18T09:06:00;-8.70;82.90
21734;DHT22;11029;47.820;10.534;2022-12-18T09:08:27;-8.70;81.70
21734;DHT22;11029;47.820;10.534;2022-12-18T09:10:54;-8.90;81.40
21734;DHT22;11029;47.820;10.534;2022-12-18T09:13:22;-8.80;82.40
21734;DHT22;11029;47.820;10.534;2022-12-18T09:15:53;-8.50;82.90
21734;DHT22;11029;47.820;10.534;2022-12-18T09:18:21;-8.50;80.30
21734;DHT22;11029;47.820;10.534;2022-12-18T09:20:48;-8.80;81.50
21734;DHT22;11029;47.820;10.534;2022-12-18T09:23:16;-8.50;82.50
21734;DHT22;11029;47.820;10.534;2022-12-18T09:25:43;-8.60;80.70
21734;DHT22;11029;47.820;10.534;2022-12-18T09:28:14;-8.90;81.10
21734;DHT22;11029;47.820;10.534;2022-12-18T09:30:46;-8.70;81.80
21734;DHT22;11029;47.820;10.534;2022-12-18T09:33:14;-8.70;80.60
21734;DHT22;11029;47.820;10.534;2022-12-18T09:35:42;-8.70;81.30
21734;DHT22;11029;47.820;10.534;2022-12-18T09:38:15;-8.40;80.10
21734;DHT22;11029;47.820;10.534;2022-12-18T09:40:44;-8.20;80.10
21734;DHT22;11029;47.820;10.534;2022-12-18T09:43:18;-8.00;79.10
21734;DHT22;11029;47.820;10.534;2022-12-18T09:45:53;-7.90;79.60
21734;DHT22;11029;47.820;10.534;2022-12-18T09:48:25;-7.50;78.00
21734;DHT22;11029;47.820;10.534;2022-12-18T09:50:58;-7.30;76.00
21734;DHT22;11029;47.820;10.534;2022-12-18T09:53:31;-7.20;75.60
21734;DHT22;11029;47.820;10.534;2022-12-18T09:56:01;-7.40;74.00
21734;DHT22;11029;47.820;10.534;2022-12-18T10:00:57;-7.20;75.30
21734;DHT22;11029;47.820;10.534;2022-12-18T10:03:24;-6.90;74.20
21734;DHT22;11029;47.820;10.534;2022-12-18T10:06:13;-6.80;74.00
21734;DHT22;11029;47.820;10.534;2022-12-18T10:14:51;-6.60;72.00
21734;DHT22;11029;47.820;10.534;2022-12-18T10:20:17;-6.10;71.50
21734;DHT22;11029;47.820;10.534;2022-12-18T10:23:09;-5.60;71.40
21734;DHT22;11029;47.820;10.534;2022-12-18T10:28:18;-5.00;71.10
21734;DHT22;11029;47.820;10.534;2022-12-18T10:30:45;-4.70;70.90
21734;DHT22;11029;47.820;10.534;2022-12-18T10:33:24;-4.60;70.30
21734;DHT22;11029;47.820;10.534;2022-12-18T10:35:54;-4.50;68.20
21734;DHT22;11029;47.820;10.534;2022-12-18T10:38:29;-4.50;68.30
21734;DHT22;11029;47.820;10.534;2022-12-18T10:46:00;-4.30;68.70
21734;DHT22;11029;47.820;10.534;2022-12-18T10:48:28;-4.00;67.70
21734;DHT22;11029;47.820;10.534;2022-12-18T10:50:55;-3.80;68.30
21734;DHT22;11029;47.820;10.534;2022-12-18T10:53:41;-3.80;67.80
21734;DHT22;11029;47.820;10.534;2022-12-18T10:56:11;-3.60;66.20
21734;DHT22;11029;47.820;10.534;2022-12-18T10:58:39;-3.50;66.20
21734;DHT22;11029;47.820;10.534;2022-12-18T11:01:13;-3.40;66.30
21734;DHT22;11029;47.820;10.534;2022-12-18T11:03:46;-3.10;66.20
21734;DHT22;11029;47.820;10.534;2022-12-18T11:06:14;-3.20;65.10
21734;DHT22;11029;47.820;10.534;2022-12-18T11:09:17;-2.80;65.50
21734;DHT22;11029;47.820;10.534;2022-12-18T11:11:49;-2.80;64.30
21734;DHT22;11029;47.820;10.534;2022-12-18T11:14:29;-2.80;64.00
21734;DHT22;11029;47.820;10.534;2022-12-18T11:16:59;-2.70;64.30
21734;DHT22;11029;47.820;10.534;2022-12-18T11:19:59;-2.40;63.90
21734;DHT22;11029;47.820;10.534;2022-12-18T11:22:37;-3.00;62.50
21734;DHT22;11029;47.820;10.534;2022-12-18T11:25:25;-3.50;64.80
21734;DHT22;11029;47.820;10.534;2022-12-18T11:30:31;-3.40;65.40
21734;DHT22;11029;47.820;10.534;2022-12-18T11:33:11;-3.70;67.10
21734;DHT22;11029;47.820;10.534;2022-12-18T11:35:54;-3.60;67.40
21734;DHT22;11029;47.820;10.534;2022-12-18T11:38:27;-3.50;67.10
21734;DHT22;11029;47.820;10.534;2022-12-18T11:43:47;-2.80;66.20
21734;DHT22;11029;47.820;10.534;2022-12-18T11:46:23;-2.70;67.80
21734;DHT22;11029;47.820;10.534;2022-12-18T11:51:48;-2.00;65.50
21734;DHT22;11029;47.820;10.534;2022-12-18T11:54:17;-1.90;63.80
21734;DHT22;11029;47.820;10.534;2022-12-18T12:05:34;-2.20;66.00
21734;DHT22;11029;47.820;10.534;2022-12-18T12:13:30;-1.90;64.40
21734;DHT22;11029;47.820;10.534;2022-12-18T12:19:11;-1.40;62.30
21734;DHT22;11029;47.820;10.534;2022-12-18T12:27:26;-1.10;61.90
21734;DHT22;11029;47.820;10.534;2022-12-18T12:33:14;-1.00;62.60
21734;DHT22;11029;47.820;10.534;2022-12-18T12:35:52;-0.90;62.50
21734;DHT22;11029;47.820;10.534;2022-12-18T12:38:27;-0.50;62.20
21734;DHT22;11029;47.820;10.534;2022-12-18T12:41:09;-0.40;62.00
21734;DHT22;11029;47.820;10.534;2022-12-18T12:43:59;-0.20;61.80
21734;DHT22;11029;47.820;10.534;2022-12-18T12:46:32;0.00;60.50
21734;DHT22;11029;47.820;10.534;2022-12-18T12:49:02;0.30;60.90
21734;DHT22;11029;47.820;10.534;2022-12-18T12:51:39;0.50;59.70
21734;DHT22;11029;47.820;10.534;2022-12-18T12:54:18;0.40;59.00
21734;DHT22;11029;47.820;10.534;2022-12-18T13:02:22;1.40;57.00
21734;DHT22;11029;47.820;10.534;2022-12-18T13:07:53;2.40;55.40
21734;DHT22;11029;47.820;10.534;2022-12-18T13:10:26;2.90;54.60
21734;DHT22;11029;47.820;10.534;2022-12-18T13:13:13;3.80;52.20
21734;DHT22;11029;47.820;10.534;2022-12-18T13:16:06;4.40;50.70
21734;DHT22;11029;47.820;10.534;2022-12-18T13:18:35;4.90;49.50
21734;DHT22;11029;47.820;10.534;2022-12-18T13:21:03;5.20;47.50
21734;DHT22;11029;47.820;10.534;2022-12-18T13:23:37;5.00;47.50
21734;DHT22;11029;47.820;10.534;2022-12-18T13:31:53;4.40;48.30
21734;DHT22;11029;47.820;10.534;2022-12-18T13:34:21;3.70;49.50
21734;DHT22;11029;47.820;10.534;2022-12-18T13:37:35;3.10;51.10
21734;DHT22;11029;47.820;10.534;2022-12-18T13:39:43;2.60;50.00
21734;DHT22;11029;47.820;10.534;2022-12-18T13:44:58;1.70;52.60
21734;DHT22;11029;47.820;10.534;2022-12-18T13:47:36;1.60;53.00
21734;DHT22;11029;47.820;10.534;2022-12-18T13:50:22;1.50;53.80
21734;DHT22;11029;47.820;10.534;2022-12-18T13:52:50;1.50;54.60
21734;DHT22;11029;47.820;10.534;2022-12-18T13:55:19;1.40;54.60
21734;DHT22;11029;47.820;10.534;2022-12-18T13:57:47;0.90;55.30
21734;DHT22;11029;47.820;10.534;2022-12-18T14:00:28;0.50;57.30
21734;DHT22;11029;47.820;10.534;2022-12-18T14:02:56;0.30;56.80
21734;DHT22;11029;47.820;10.534;2022-12-18T14:05:26;0.00;56.40
21734;DHT22;11029;47.820;10.534;2022-12-18T14:07:53;-0.60;57.90
21734;DHT22;11029;47.820;10.534;2022-12-18T14:10:22;-0.80;59.30
21734;DHT22;11029;47.820;10.534;2022-12-18T14:13:13;-0.80;60.20
21734;DHT22;11029;47.820;10.534;2022-12-18T14:15:45;-0.80;60.50
21734;DHT22;11029;47.820;10.534;2022-12-18T14:20:58;-0.90;62.00
21734;DHT22;11029;47.820;10.534;2022-12-18T14:25:53;-1.10;61.80
21734;DHT22;11029;47.820;10.534;2022-12-18T14:28:20;-1.40;62.50
21734;DHT22;11029;47.820;10.534;2022-12-18T14:30:49;-1.50;63.10
21734;DHT22;11029;47.820;10.534;2022-12-18T14:33:17;-1.40;62.50
21734;DHT22;11029;47.820;10.534;2022-12-18T14:38:28;-1.20;63.10
21734;DHT22;11029;47.820;10.534;2022-12-18T14:43:22;-0.90;63.60
21734;DHT22;11029;47.820;10.534;2022-12-18T14:45:49;-0.40;62.20
21734;DHT22;11029;47.820;10.534;2022-12-18T14:48:23;0.00;59.10
21734;DHT22;11029;47.820;10.534;2022-12-18T14:51:03;0.00;56.40
21734;DHT22;11029;47.820;10.534;2022-12-18T14:53:46;-0.70;58.30
21734;DHT22;11029;47.820;10.534;2022-12-18T14:56:21;-1.10;59.80
21734;DHT22;11029;47.820;10.534;2022-12-18T14:58:50;-1.70;60.30
21734;DHT22;11029;47.820;10.534;2022-12-18T15:01:20;-2.20;61.80
21734;DHT22;11029;47.820;10.534;2022-12-18T15:03:47;-2.80;64.20
21734;DHT22;11029;47.820;10.534;2022-12-18T15:06:38;-3.30;64.80
21734;DHT22;11029;47.820;10.534;2022-12-18T15:09:22;-3.70;68.10
21734;DHT22;11029;47.820;10.534;2022-12-18T15:11:58;-3.70;69.60
21734;DHT22;11029;47.820;10.534;2022-12-18T15:14:39;-3.80;69.40
21734;DHT22;11029;47.820;10.534;2022-12-18T15:17:19;-4.00;70.10
21734;DHT22;11029;47.820;10.534;2022-12-18T15:19:50;-4.20;70.40
21734;DHT22;11029;47.820;10.534;2022-12-18T15:22:24;-4.40;70.40
21734;DHT22;11029;47.820;10.534;2022-12-18T15:24:53;-4.60;71.20
21734;DHT22;11029;47.820;10.534;2022-12-18T15:27:29;-4.80;71.10
21734;DHT22;11029;47.820;10.534;2022-12-18T15:32:37;-5.20;71.40
21734;DHT22;11029;47.820;10.534;2022-12-18T15:35:17;-5.40;72.30
21734;DHT22;11029;47.820;10.534;2022-12-18T15:37:44;-5.40;73.20
21734;DHT22;11029;47.820;10.534;2022-12-18T15:40:16;-5.70;74.20
21734;DHT22;11029;47.820;10.534;2022-12-18T15:42:43;-5.80;74.80
21734;DHT22;11029;47.820;10.534;2022-12-18T15:45:28;-6.00;74.00
21734;DHT22;11029;47.820;10.534;2022-12-18T15:47:55;-6.00;75.50
21734;DHT22;11029;47.820;10.534;2022-12-18T15:50:23;-5.90;75.10
21734;DHT22;11029;47.820;10.534;2022-12-18T15:52:52;-5.90;74.90
21734;DHT22;11029;47.820;10.534;2022-12-18T15:55:22;-6.00;74.70
21734;DHT22;11029;47.820;10.534;2022-12-18T15:58:09;-6.10;74.20
21734;DHT22;11029;47.820;10.534;2022-12-18T16:00:38;-6.20;75.30
21734;DHT22;11029;47.820;10.534;2022-12-18T16:03:05;-6.30;74.70
21734;DHT22;11029;47.820;10.534;2022-12-18T16:05:33;-6.30;74.20
21734;DHT22;11029;47.820;10.534;2022-12-18T16:08:00;-6.40;74.20
21734;DHT22;11029;47.820;10.534;2022-12-18T16:10:26;-6.50;74.90
21734;DHT22;11029;47.820;10.534;2022-12-18T16:12:53;-6.50;75.30
21734;DHT22;11029;47.820;10.534;2022-12-18T16:15:20;-6.60;74.60
21734;DHT22;11029;47.820;10.534;2022-12-18T16:17:50;-6.60;74.20
21734;DHT22;11029;47.820;10.534;2022-12-18T16:20:20;-6.80;75.50
21734;DHT22;11029;47.820;10.534;2022-12-18T16:22:48;-6.80;75.50
21734;DHT22;11029;47.820;10.534;2022-12-18T16:25:24;-6.90;75.30
21734;DHT22;11029;47.820;10.534;2022-12-18T16:27:52;-6.80;74.80
21734;DHT22;11029;47.820;10.534;2022-12-18T16:30:23;-6.80;75.50
21734;DHT22;11029;47.820;10.534;2022-12-18T16:32:51;-6.90;75.50
21734;DHT22;11029;47.820;10.534;2022-12-18T16:35:18;-6.90;76.70
21734;DHT22;11029;47.820;10.534;2022-12-18T16:37:45;-6.80;76.00
21734;DHT22;11029;47.820;10.534;2022-12-18T16:40:13;-6.80;74.80
21734;DHT22;11029;47.820;10.534;2022-12-18T16:42:42;-6.80;74.90
21734;DHT22;11029;47.820;10.534;2022-12-18T16:45:12;-6.80;74.40
21734;DHT22;11029;47.820;10.534;2022-12-18T16:47:39;-6.90;73.50
21734;DHT22;11029;47.820;10.534;2022-12-18T16:50:07;-7.00;72.80
21734;DHT22;11029;47.820;10.534;2022-12-18T16:52:34;-7.00;73.50
21734;DHT22;11029;47.820;10.534;2022-12-18T16:55:01;-7.10;74.00
21734;DHT22;11029;47.820;10.534;2022-12-18T16:57:27;-7.10;73.20
21734;DHT22;11029;47.820;10.534;2022-12-18T16:59:54;-7.20;73.20
21734;DHT22;11029;47.820;10.534;2022-12-18T17:02:28;-7.20;72.70
21734;DHT22;11029;47.820;10.534;2022-12-18T17:04:56;-7.40;73.10
21734;DHT22;11029;47.820;10.534;2022-12-18T17:07:25;-7.50;74.10
21734;DHT22;11029;47.820;10.534;2022-12-18T17:09:51;-7.50;74.80
21734;DHT22;11029;47.820;10.534;2022-12-18T17:12:20;-7.50;75.60
21734;DHT22;11029;47.820;10.534;2022-12-18T17:14:47;-7.40;75.40
21734;DHT22;11029;47.820;10.534;2022-12-18T17:17:14;-7.40;74.60
21734;DHT22;11029;47.820;10.534;2022-12-18T17:19:50;-7.50;74.60
21734;DHT22;11029;47.820;10.534;2022-12-18T17:22:17;-7.50;74.60
21734;DHT22;11029;47.820;10.534;2022-12-18T17:24:45;-7.60;74.20
21734;DHT22;11029;47.820;10.534;2022-12-18T17:27:12;-7.60;74.50
21734;DHT22;11029;47.820;10.534;2022-12-18T17:29:39;-7.60;74.10
21734;DHT22;11029;47.820;10.534;2022-12-18T17:32:13;-7.50;74.30
21734;DHT22;11029;47.820;10.534;2022-12-18T17:34:39;-7.60;73.30
21734;DHT22;11029;47.820;10.534;2022-12-18T17:37:06;-7.80;73.70
21734;DHT22;11029;47.820;10.534;2022-12-18T17:39:33;-7.80;73.70
21734;DHT22;11029;47.820;10.534;2022-12-18T17:42:00;-7.80;73.50